Time;durP1;ratioP1;P1;durP2;ratioP2;P2;SDS_P1;SDS_P2;PMS_P1;PMS_P2;Temp;Humidity;BMP_temperature;BMP_pressure;BME280_temperature;BME280_humidity;BME280_pressure;Samples;Min_cycle;Max_cycle;Signal;HPM_P1;HPM_P2
2023/03/13 00:02:09;;;;;;;10.15;3.83;;;7.70;95.70;;;;;;4968074;28;20681;-77
2023/03/13 00:04:34;;;;;;;6.70;3.80;;;7.70;95.90;;;;;;4973517;28;20049;-77
2023/03/13 00:07:00;;;;;;;11.40;3.20;;;7.80;95.80;;;;;;4969134;28;20042;-77
2023/03/13 00:09:26;;;;;;;6.20;3.65;;;7.90;95.80;;;;;;4971808;28;20149;-76
2023/03/13 00:11:51;;;;;;;7.25;3.70;;;7.90;95.80;;;;;;4972156;28;20030;-77
2023/03/13 00:14:17;;;;;;;6.18;4.10;;;7.90;95.80;;;;;;4980882;28;20023;-76
2023/03/13 00:16:43;;;;;;;10.00;4.15;;;7.80;95.90;;;;;;4973797;28;20037;-76
2023/03/13 00:19:09;;;;;;;7.72;3.90;;;7.90;96.20;;;;;;4977276;28;20029;-76
2023/03/13 00:21:40;;;;;;;9.40;4.55;;;7.90;95.90;;;;;;4976859;28;20482;-76
2023/03/13 00:24:06;;;;;;;5.57;3.33;;;7.80;96.20;;;;;;4971950;28;20082;-76
2023/03/13 00:26:32;;;;;;;8.07;3.83;;;7.70;96.20;;;;;;4970736;28;20441;-77
2023/03/13 00:28:58;;;;;;;7.35;3.50;;;7.70;96.30;;;;;;4972281;28;20074;-76
2023/03/13 00:31:29;;;;;;;9.90;4.10;;;7.80;96.10;;;;;;4972281;28;20049;-76
2023/03/13 00:33:59;;;;;;;5.88;3.60;;;7.90;96.00;;;;;;4971896;28;20042;-77
2023/03/13 00:36:30;;;;;;;8.32;4.65;;;7.90;96.00;;;;;;4979250;28;20081;-76
2023/03/13 00:38:56;;;;;;;9.18;3.70;;;7.90;96.00;;;;;;4972801;28;20061;-76
2023/03/13 00:41:27;;;;;;;8.65;4.25;;;7.90;96.00;;;;;;4973789;28;20061;-76
2023/03/13 00:43:54;;;;;;;7.18;3.35;;;7.90;96.10;;;;;;4978311;28;20039;-77
2023/03/13 00:46:22;;;;;;;7.60;3.72;;;7.90;96.10;;;;;;4970525;28;20041;-76
2023/03/13 00:48:48;;;;;;;6.38;3.60;;;8.00;96.30;;;;;;4968609;28;20478;-76
2023/03/13 00:51:15;;;;;;;8.35;4.10;;;8.00;96.20;;;;;;4977375;28;20027;-76
2023/03/13 00:53:42;;;;;;;6.30;2.88;;;8.00;96.20;;;;;;4976497;28;20413;-76
2023/03/13 00:56:10;;;;;;;6.43;3.78;;;7.90;96.30;;;;;;4971115;28;20057;-76
2023/03/13 00:58:38;;;;;;;8.85;4.28;;;7.90;96.30;;;;;;4968837;28;20075;-76
2023/03/13 01:01:07;;;;;;;8.90;4.00;;;8.10;96.10;;;;;;4970421;28;20517;-77
2023/03/13 01:03:33;;;;;;;7.25;3.80;;;8.00;96.20;;;;;;4979624;28;20035;-77
2023/03/13 01:06:01;;;;;;;7.30;3.90;;;8.00;96.30;;;;;;4969405;28;20034;-76
2023/03/13 01:08:28;;;;;;;7.15;4.20;;;8.00;96.40;;;;;;4972527;28;20094;-76
2023/03/13 01:11:08;;;;;;;7.80;3.35;;;8.00;96.20;;;;;;4980173;28;20057;-76
2023/03/13 01:13:35;;;;;;;8.40;4.25;;;8.00;96.30;;;;;;4977638;28;20035;-76
2023/03/13 01:16:09;;;;;;;8.48;4.45;;;8.00;96.30;;;;;;4973688;28;20041;-77
2023/03/13 01:18:37;;;;;;;6.68;3.70;;;8.10;96.30;;;;;;4973247;28;20054;-76
2023/03/13 01:21:03;;;;;;;7.70;3.75;;;8.00;96.30;;;;;;4971845;28;20489;-76
2023/03/13 01:23:30;;;;;;;6.70;3.70;;;8.10;96.30;;;;;;4976287;28;20030;-76
2023/03/13 01:25:56;;;;;;;6.85;3.72;;;8.10;96.30;;;;;;4971964;28;20069;-76
2023/03/13 01:28:24;;;;;;;10.52;3.63;;;7.90;96.40;;;;;;4980160;28;20497;-76
2023/03/13 01:30:50;;;;;;;6.93;3.90;;;7.90;96.60;;;;;;4974663;28;20053;-78
2023/03/13 01:33:15;;;;;;;7.25;3.65;;;8.00;96.60;;;;;;4974486;28;20553;-76
2023/03/13 01:35:41;;;;;;;7.03;3.90;;;7.90;96.50;;;;;;4970136;28;20119;-76
2023/03/13 01:38:07;;;;;;;6.75;4.03;;;7.90;96.50;;;;;;4966891;28;20035;-77
2023/03/13 01:40:47;;;;;;;7.30;3.80;;;7.90;96.70;;;;;;4979720;28;20030;-76
2023/03/13 01:43:25;;;;;;;6.07;3.25;;;7.80;96.80;;;;;;4971887;28;20462;-76
2023/03/13 01:46:09;;;;;;;6.32;3.92;;;7.90;96.80;;;;;;4969316;28;20646;-76
2023/03/13 01:49:06;;;;;;;7.28;4.22;;;7.90;96.70;;;;;;4973082;28;20409;-76
2023/03/13 01:51:37;;;;;;;7.78;3.20;;;8.00;96.50;;;;;;4973490;28;20057;-76
2023/03/13 01:54:09;;;;;;;7.53;4.22;;;7.90;96.50;;;;;;4971375;28;20436;-76
2023/03/13 01:57:00;;;;;;;10.75;4.30;;;8.00;96.60;;;;;;4977722;28;20656;-77
2023/03/13 01:59:55;;;;;;;8.38;4.22;;;8.00;96.60;;;;;;4977543;28;20030;-76
2023/03/13 02:02:22;;;;;;;6.25;4.15;;;8.10;96.60;;;;;;4961284;28;20074;-76
2023/03/13 02:04:53;;;;;;;7.22;3.97;;;8.00;96.60;;;;;;4974160;28;20474;-76
2023/03/13 02:07:42;;;;;;;8.38;4.38;;;7.90;96.60;;;;;;4973744;28;20385;-76
2023/03/13 02:10:09;;;;;;;8.68;4.32;;;7.70;97.00;;;;;;4980964;28;20031;-77
2023/03/13 02:12:38;;;;;;;7.70;3.65;;;7.80;97.10;;;;;;4985769;28;20408;-76
2023/03/13 02:15:17;;;;;;;10.88;4.82;;;7.80;97.00;;;;;;4973847;28;20490;-76
2023/03/13 02:17:45;;;;;;;8.43;4.28;;;7.90;97.00;;;;;;4979801;28;20065;-76
2023/03/13 02:20:12;;;;;;;6.75;3.80;;;7.90;97.00;;;;;;4979589;28;20066;-76
2023/03/13 02:23:06;;;;;;;8.90;4.60;;;7.90;96.90;;;;;;4974090;28;20030;-77
2023/03/13 02:25:52;;;;;;;8.43;3.95;;;7.90;96.90;;;;;;4973380;28;20038;-76
2023/03/13 02:28:26;;;;;;;8.20;3.83;;;7.80;96.90;;;;;;4972140;28;20092;-76
2023/03/13 02:30:55;;;;;;;8.15;4.05;;;7.90;96.90;;;;;;4975260;28;20031;-76
2023/03/13 02:33:25;;;;;;;11.30;5.03;;;7.90;96.90;;;;;;4975154;28;20035;-77
2023/03/13 02:35:51;;;;;;;6.85;4.50;;;7.90;96.90;;;;;;4985940;28;20026;-77
2023/03/13 02:38:22;;;;;;;6.88;4.22;;;7.90;96.80;;;;;;4972258;28;20026;-77
2023/03/13 02:40:51;;;;;;;8.95;4.25;;;8.00;96.90;;;;;;4978730;28;20055;-77
2023/03/13 02:43:25;;;;;;;7.50;4.40;;;8.00;96.80;;;;;;4979240;28;20621;-76
2023/03/13 02:46:16;;;;;;;9.35;4.65;;;8.10;96.70;;;;;;4976699;28;20129;-76
2023/03/13 02:48:47;;;;;;;9.45;4.70;;;8.10;96.60;;;;;;4977270;28;20042;-76
2023/03/13 02:51:30;;;;;;;7.60;4.10;;;8.20;96.60;;;;;;4976117;28;20035;-75
2023/03/13 02:54:00;;;;;;;7.65;4.82;;;8.10;97.00;;;;;;4970454;28;20449;-75
2023/03/13 02:56:29;;;;;;;9.10;4.25;;;8.00;97.30;;;;;;4981018;28;20030;-75
2023/03/13 02:58:54;;;;;;;8.02;4.45;;;7.90;97.40;;;;;;4976463;28;20027;-75
2023/03/13 03:01:20;;;;;;;9.48;4.15;;;7.90;97.50;;;;;;4972267;28;20058;-75
2023/03/13 03:03:47;;;;;;;9.57;4.22;;;7.80;97.60;;;;;;4980352;28;20054;-75
2023/03/13 03:06:13;;;;;;;7.40;3.95;;;7.90;97.40;;;;;;4982527;28;20448;-75
2023/03/13 03:08:40;;;;;;;6.82;4.70;;;7.90;97.40;;;;;;4977993;28;20027;-75
2023/03/13 03:11:06;;;;;;;6.93;4.22;;;8.00;97.20;;;;;;4970348;28;20070;-75
2023/03/13 03:13:32;;;;;;;7.10;3.90;;;8.10;97.00;;;;;;4981495;28;20096;-75
2023/03/13 03:15:58;;;;;;;6.68;4.05;;;8.20;96.80;;;;;;4983692;28;20688;-75
2023/03/13 03:18:24;;;;;;;7.18;4.32;;;8.30;97.00;;;;;;4971998;28;20038;-75
2023/03/13 03:20:50;;;;;;;7.05;4.47;;;8.40;96.70;;;;;;4975132;28;20050;-76
2023/03/13 03:23:16;;;;;;;8.82;4.30;;;8.20;97.30;;;;;;4973312;28;20029;-75
2023/03/13 03:25:41;;;;;;;14.93;4.45;;;8.00;97.60;;;;;;4971763;28;20038;-75
2023/03/13 03:28:07;;;;;;;8.38;4.85;;;7.90;97.80;;;;;;4977312;28;20048;-75
2023/03/13 03:30:33;;;;;;;7.68;4.50;;;7.70;98.20;;;;;;4981740;28;20085;-75
2023/03/13 03:32:58;;;;;;;10.25;4.95;;;7.70;98.30;;;;;;4978059;28;20041;-75
2023/03/13 03:35:24;;;;;;;7.82;4.38;;;7.80;97.90;;;;;;4974114;28;20085;-75
2023/03/13 03:37:50;;;;;;;8.02;3.75;;;7.90;98.10;;;;;;4977358;28;20030;-75
2023/03/13 03:40:15;;;;;;;12.88;5.50;;;7.90;97.70;;;;;;4982856;28;20113;-75
2023/03/13 03:42:41;;;;;;;6.95;4.68;;;8.00;96.90;;;;;;4971110;28;20121;-75
2023/03/13 03:45:07;;;;;;;6.38;3.72;;;8.10;96.90;;;;;;4980205;28;20038;-75
2023/03/13 03:47:33;;;;;;;7.18;4.45;;;8.10;96.80;;;;;;4974549;28;20480;-75
2023/03/13 03:49:58;;;;;;;7.95;3.85;;;8.10;96.70;;;;;;4975558;28;20030;-75
2023/03/13 03:52:24;;;;;;;6.97;4.15;;;8.30;96.80;;;;;;4976796;28;20085;-75
2023/03/13 03:54:50;;;;;;;7.72;3.78;;;8.20;96.70;;;;;;4977612;28;20030;-75
2023/03/13 03:57:15;;;;;;;10.77;5.15;;;8.20;96.80;;;;;;4974747;28;20041;-75
2023/03/13 03:59:41;;;;;;;9.05;4.60;;;8.20;97.20;;;;;;4988471;28;20045;-75
2023/03/13 04:02:07;;;;;;;8.32;4.50;;;8.20;97.70;;;;;;4985692;28;20080;-76
2023/03/13 04:04:32;;;;;;;8.88;4.30;;;8.10;97.70;;;;;;4981997;28;20497;-76
2023/03/13 04:06:58;;;;;;;6.72;4.45;;;8.00;97.80;;;;;;4975976;28;20030;-76
2023/03/13 04:09:24;;;;;;;7.95;4.20;;;8.10;97.90;;;;;;4973345;28;20064;-78
2023/03/13 04:11:49;;;;;;;9.15;4.03;;;8.10;97.80;;;;;;4972107;28;20034;-77
2023/03/13 04:14:15;;;;;;;8.27;4.53;;;7.90;97.50;;;;;;4971558;28;20792;-77
2023/03/13 04:16:40;;;;;;;8.80;3.90;;;8.00;97.20;;;;;;4972097;28;20481;-76
2023/03/13 04:19:06;;;;;;;7.68;3.88;;;8.00;97.00;;;;;;4965107;28;20475;-77
2023/03/13 04:21:32;;;;;;;6.93;4.20;;;8.10;97.00;;;;;;4967908;28;20037;-78
2023/03/13 04:23:57;;;;;;;5.65;3.70;;;8.10;96.90;;;;;;4973349;28;20097;-77
2023/03/13 04:26:23;;;;;;;9.52;4.55;;;7.90;96.90;;;;;;4977766;28;20591;-76
2023/03/13 04:28:49;;;;;;;9.13;4.38;;;8.00;97.00;;;;;;4972713;28;20534;-77
2023/03/13 04:31:14;;;;;;;7.78;4.55;;;8.00;97.50;;;;;;4977859;28;20488;-77
2023/03/13 04:33:43;;;;;;;7.93;3.85;;;8.00;97.90;;;;;;4972903;28;20038;-76
2023/03/13 04:36:08;;;;;;;7.38;4.28;;;8.00;97.90;;;;;;4970189;28;20382;-77
2023/03/13 04:38:34;;;;;;;6.55;3.95;;;8.00;98.00;;;;;;4976707;28;20033;-77
2023/03/13 04:41:00;;;;;;;8.10;3.90;;;8.00;98.20;;;;;;4979799;28;20122;-77
2023/03/13 04:43:25;;;;;;;9.05;3.90;;;7.90;98.40;;;;;;4982529;28;20034;-76
2023/03/13 04:45:55;;;;;;;7.25;3.95;;;7.90;98.60;;;;;;4981972;28;20043;-77
2023/03/13 04:48:21;;;;;;;9.85;4.43;;;7.90;98.80;;;;;;4976972;28;20026;-77
2023/03/13 04:50:47;;;;;;;5.90;3.63;;;7.80;98.40;;;;;;4979882;28;20026;-77
2023/03/13 04:53:13;;;;;;;8.02;4.32;;;7.80;98.70;;;;;;4973554;28;20043;-77
2023/03/13 04:55:39;;;;;;;6.68;3.40;;;7.80;99.20;;;;;;4969980;28;20031;-76
2023/03/13 04:58:05;;;;;;;9.23;4.47;;;7.70;98.80;;;;;;4969341;28;20074;-76
2023/03/13 05:00:30;;;;;;;7.55;4.57;;;7.70;98.90;;;;;;4964865;28;20394;-77
2023/03/13 05:02:56;;;;;;;6.18;4.10;;;7.80;98.90;;;;;;4969717;28;20026;-77
2023/03/13 05:05:22;;;;;;;9.18;4.10;;;7.90;98.60;;;;;;4966277;28;20042;-76
2023/03/13 05:07:47;;;;;;;11.35;4.57;;;7.80;98.50;;;;;;4979054;28;20041;-77
2023/03/13 05:10:13;;;;;;;8.20;4.07;;;7.80;98.60;;;;;;4980334;28;20042;-77
2023/03/13 05:12:39;;;;;;;7.65;4.15;;;7.80;98.80;;;;;;4968892;28;20524;-76
2023/03/13 05:15:05;;;;;;;7.82;3.97;;;7.70;98.70;;;;;;4973009;28;20392;-77
2023/03/13 05:17:31;;;;;;;7.90;4.15;;;7.80;98.60;;;;;;4968938;28;20093;-77
2023/03/13 05:19:56;;;;;;;7.07;4.45;;;7.60;98.20;;;;;;4970476;28;20450;-77
2023/03/13 05:22:22;;;;;;;7.57;4.13;;;7.80;98.00;;;;;;4962167;28;20030;-77
2023/03/13 05:24:48;;;;;;;8.02;4.55;;;7.60;98.00;;;;;;4962524;28;20105;-77
2023/03/13 05:27:13;;;;;;;7.13;3.85;;;7.70;97.80;;;;;;4969032;28;20035;-78
2023/03/13 05:29:50;;;;;;;8.75;4.22;;;7.90;97.70;;;;;;4972058;28;20030;-77
2023/03/13 05:32:15;;;;;;;6.85;4.25;;;7.90;97.80;;;;;;4972406;28;20093;-77
2023/03/13 05:34:41;;;;;;;10.25;4.13;;;7.90;98.20;;;;;;4968485;28;20649;-77
2023/03/13 05:37:06;;;;;;;7.90;4.07;;;7.80;98.50;;;;;;4970630;28;20023;-78
2023/03/13 05:39:32;;;;;;;6.05;3.58;;;7.80;98.50;;;;;;4971873;28;20057;-78
2023/03/13 05:41:58;;;;;;;9.52;4.80;;;7.80;98.70;;;;;;4969986;28;20525;-77
2023/03/13 05:44:23;;;;;;;7.82;4.13;;;7.80;98.90;;;;;;4974659;28;20030;-78
2023/03/13 05:46:49;;;;;;;7.32;3.88;;;7.80;98.70;;;;;;4983935;28;20039;-78
2023/03/13 05:49:15;;;;;;;7.18;4.00;;;7.70;98.80;;;;;;4968979;28;20085;-79
2023/03/13 05:51:40;;;;;;;8.80;4.57;;;7.80;98.70;;;;;;4968242;28;20030;-79
2023/03/13 05:54:06;;;;;;;7.20;4.53;;;7.70;98.90;;;;;;4966709;28;20041;-78
2023/03/13 05:56:32;;;;;;;8.02;4.38;;;7.70;98.70;;;;;;4974463;28;20066;-77
2023/03/13 05:58:57;;;;;;;7.75;4.78;;;7.80;98.70;;;;;;4973636;28;20035;-78
2023/03/13 06:01:23;;;;;;;8.52;4.43;;;7.80;99.00;;;;;;4965491;28;20560;-78
2023/03/13 06:03:49;;;;;;;8.80;4.47;;;7.90;99.10;;;;;;4977483;28;20034;-78
2023/03/13 06:06:14;;;;;;;9.15;4.10;;;8.00;99.10;;;;;;4974909;28;20084;-77
2023/03/13 06:08:40;;;;;;;10.55;3.78;;;8.00;99.10;;;;;;4969931;28;20026;-79
2023/03/13 06:11:06;;;;;;;7.35;4.25;;;7.90;99.10;;;;;;4974117;28;20215;-79
2023/03/13 06:13:31;;;;;;;7.07;3.75;;;7.80;99.10;;;;;;4970728;28;20035;-78
2023/03/13 06:15:57;;;;;;;9.43;4.10;;;7.70;99.40;;;;;;4973629;28;20062;-78
2023/03/13 06:18:23;;;;;;;8.68;4.63;;;7.70;99.70;;;;;;4971331;28;20423;-78
2023/03/13 06:20:58;;;;;;;9.35;4.82;;;7.80;99.30;;;;;;4968854;28;20436;-78
2023/03/13 06:23:24;;;;;;;7.72;4.78;;;7.90;98.70;;;;;;4973513;28;20078;-77
2023/03/13 06:25:50;;;;;;;10.68;4.80;;;8.00;98.30;;;;;;4971848;28;20110;-79
2023/03/13 06:28:16;;;;;;;8.52;4.43;;;8.10;98.10;;;;;;4967140;28;20035;-76
2023/03/13 06:30:42;;;;;;;8.52;4.43;;;8.20;98.00;;;;;;4973727;28;20042;-79
2023/03/13 06:33:08;;;;;;;7.47;4.40;;;8.30;97.80;;;;;;4964377;28;20035;-78
2023/03/13 06:35:33;;;;;;;7.32;4.32;;;8.40;97.10;;;;;;4964197;28;20048;-78
2023/03/13 06:37:59;;;;;;;10.40;5.18;;;8.40;97.40;;;;;;4965728;28;20058;-76
2023/03/13 06:40:27;;;;;;;10.40;4.60;;;8.40;97.40;;;;;;4970506;28;20026;-77
2023/03/13 06:42:53;;;;;;;8.38;4.88;;;8.40;97.30;;;;;;4967166;28;20042;-78
2023/03/13 06:45:19;;;;;;;13.70;6.60;;;8.50;97.30;;;;;;4968003;28;20035;-77
2023/03/13 06:47:44;;;;;;;6.32;4.05;;;8.50;98.00;;;;;;4966498;28;20545;-77
2023/03/13 06:50:10;;;;;;;8.10;4.07;;;8.40;98.60;;;;;;4965369;28;20035;-78
2023/03/13 06:52:36;;;;;;;8.05;4.18;;;8.30;98.80;;;;;;4965414;28;20027;-78
2023/03/13 06:55:03;;;;;;;8.65;4.63;;;8.40;98.60;;;;;;4966030;28;20039;-77
2023/03/13 06:57:29;;;;;;;9.00;5.00;;;8.50;98.50;;;;;;4967699;28;20062;-78
2023/03/13 06:59:54;;;;;;;9.13;4.57;;;8.50;97.60;;;;;;4972507;28;20054;-78
2023/03/13 07:02:20;;;;;;;10.30;4.15;;;8.70;97.10;;;;;;4965993;28;20031;-78
2023/03/13 07:04:46;;;;;;;5.75;3.60;;;8.90;97.10;;;;;;4965629;28;20039;-81
2023/03/13 07:07:11;;;;;;;11.40;4.28;;;8.80;97.30;;;;;;4978400;28;20046;-78
2023/03/13 07:09:37;;;;;;;7.43;5.07;;;8.60;98.10;;;;;;4967071;28;20023;-78
2023/03/13 07:12:04;;;;;;;13.30;4.72;;;8.50;98.80;;;;;;4966161;28;20343;-80
2023/03/13 07:14:29;;;;;;;7.75;4.55;;;8.40;98.50;;;;;;4965575;28;20115;-83
2023/03/13 07:16:58;;;;;;;8.02;4.65;;;8.60;98.50;;;;;;4976359;28;20568;-79
2023/03/13 07:19:25;;;;;;;15.32;5.97;;;8.50;99.20;;;;;;4968090;28;20094;-77
2023/03/13 07:21:51;;;;;;;8.30;4.97;;;8.40;99.30;;;;;;4976932;28;20034;-77
2023/03/13 07:24:17;;;;;;;10.60;5.57;;;8.40;98.70;;;;;;4979535;28;20128;-80
2023/03/13 07:26:43;;;;;;;8.32;4.47;;;8.40;99.10;;;;;;4973912;28;20118;-78
2023/03/13 07:29:09;;;;;;;12.55;5.68;;;8.60;98.90;;;;;;4968650;28;20943;-77
2023/03/13 07:31:36;;;;;;;10.63;5.70;;;8.80;98.80;;;;;;4970193;28;20039;-77
2023/03/13 07:34:01;;;;;;;14.88;5.55;;;8.80;98.60;;;;;;4966488;28;20567;-79
2023/03/13 07:36:28;;;;;;;10.23;5.28;;;8.80;98.40;;;;;;4968345;28;20023;-78
2023/03/13 07:38:54;;;;;;;7.85;4.78;;;8.90;98.40;;;;;;4966805;28;20077;-80
2023/03/13 07:41:20;;;;;;;9.60;4.93;;;9.20;98.00;;;;;;4967941;28;20034;-77
2023/03/13 07:43:46;;;;;;;8.68;4.85;;;9.30;97.60;;;;;;4969633;28;20031;-77
2023/03/13 07:46:14;;;;;;;8.98;5.38;;;9.50;97.40;;;;;;4967010;28;20039;-79
2023/03/13 07:48:42;;;;;;;10.95;5.70;;;9.50;97.20;;;;;;4966255;28;20041;-78
2023/03/13 07:51:12;;;;;;;9.57;5.30;;;9.30;97.70;;;;;;4970220;28;20031;-79
2023/03/13 07:53:38;;;;;;;9.52;5.28;;;9.40;98.00;;;;;;4968789;28;20441;-81
2023/03/13 07:56:06;;;;;;;12.00;6.07;;;9.30;98.30;;;;;;4971150;28;20030;-82
2023/03/13 07:58:35;;;;;;;9.73;5.40;;;9.20;98.00;;;;;;4967066;28;20027;-77
2023/03/13 08:01:07;;;;;;;11.27;6.18;;;9.20;98.10;;;;;;4967317;28;20105;-78
2023/03/13 08:03:32;;;;;;;10.52;6.47;;;9.30;98.10;;;;;;4969090;28;20030;-79
2023/03/13 08:06:02;;;;;;;14.32;6.18;;;9.40;97.90;;;;;;4978531;28;20362;-77
2023/03/13 08:08:29;;;;;;;13.52;5.28;;;9.40;97.40;;;;;;4970404;28;20034;-78
2023/03/13 08:11:06;;;;;;;11.50;5.53;;;9.50;97.50;;;;;;4965693;28;20089;-76
2023/03/13 08:13:33;;;;;;;11.00;5.93;;;9.50;97.60;;;;;;4966033;28;20023;-78
2023/03/13 08:16:13;;;;;;;10.30;5.57;;;9.70;97.90;;;;;;4964617;28;20046;-78
2023/03/13 08:18:41;;;;;;;9.80;5.90;;;9.90;97.40;;;;;;4967972;28;20022;-79
2023/03/13 08:21:10;;;;;;;10.43;5.55;;;9.70;97.30;;;;;;4967001;28;20065;-78
2023/03/13 08:23:36;;;;;;;8.35;4.72;;;9.70;97.10;;;;;;4966318;28;20605;-76
2023/03/13 08:26:06;;;;;;;12.30;6.00;;;9.80;97.40;;;;;;4966374;28;20097;-77
2023/03/13 08:28:32;;;;;;;9.40;5.32;;;10.00;96.90;;;;;;4968877;28;20504;-80
2023/03/13 08:30:58;;;;;;;9.20;5.53;;;10.20;96.90;;;;;;4968753;28;20030;-77
2023/03/13 08:33:23;;;;;;;10.10;5.25;;;10.40;96.80;;;;;;4978821;28;20030;-82
2023/03/13 08:35:51;;;;;;;10.35;6.28;;;10.40;96.00;;;;;;4969950;28;20036;-78
2023/03/13 08:38:17;;;;;;;11.38;4.93;;;10.40;96.30;;;;;;4963689;28;20022;-81
2023/03/13 08:40:43;;;;;;;13.05;5.72;;;10.40;96.30;;;;;;4986336;28;20050;-77
2023/03/13 08:43:08;;;;;;;9.40;5.75;;;10.30;96.10;;;;;;4973764;28;20038;-78
2023/03/13 08:45:34;;;;;;;9.57;5.65;;;10.50;95.90;;;;;;4965052;28;20035;-78
2023/03/13 08:48:00;;;;;;;9.68;5.38;;;10.70;96.00;;;;;;4966723;28;20027;-77
2023/03/13 08:50:25;;;;;;;10.73;6.05;;;10.90;96.00;;;;;;4967483;28;20042;-77
2023/03/13 08:52:51;;;;;;;11.52;6.43;;;10.60;95.50;;;;;;4964688;28;20482;-77
2023/03/13 08:55:16;;;;;;;13.30;5.20;;;10.60;95.80;;;;;;4966554;28;20026;-77
2023/03/13 08:57:42;;;;;;;11.55;5.80;;;10.50;95.50;;;;;;4965119;28;20532;-78
2023/03/13 09:00:10;;;;;;;11.07;4.90;;;10.50;95.90;;;;;;4964042;28;20082;-80
2023/03/13 09:02:35;;;;;;;8.95;5.30;;;10.60;95.60;;;;;;4966049;28;20061;-79
2023/03/13 09:05:01;;;;;;;18.52;5.40;;;10.70;95.60;;;;;;4973946;28;20034;-77
2023/03/13 09:07:26;;;;;;;10.77;7.50;;;10.80;95.80;;;;;;4969815;28;20121;-80
2023/03/13 09:09:52;;;;;;;12.85;8.57;;;10.80;95.60;;;;;;4980503;28;20042;-77
2023/03/13 09:12:18;;;;;;;11.25;5.88;;;10.80;95.50;;;;;;4969256;28;20042;-77
2023/03/13 09:14:44;;;;;;;11.38;5.82;;;10.90;95.30;;;;;;4981433;28;20045;-78
2023/03/13 09:17:09;;;;;;;25.33;15.50;;;11.00;95.00;;;;;;4970901;28;20509;-78
2023/03/13 09:19:35;;;;;;;14.25;10.13;;;11.10;95.00;;;;;;4967275;28;20109;-77
2023/03/13 09:22:00;;;;;;;10.95;6.65;;;11.30;95.40;;;;;;4967908;28;20092;-79
2023/03/13 09:24:26;;;;;;;10.02;5.75;;;11.20;94.60;;;;;;4974985;28;20038;-79
2023/03/13 09:26:54;;;;;;;8.43;5.47;;;11.30;94.90;;;;;;4974828;28;20825;-78
2023/03/13 09:29:21;;;;;;;9.02;5.15;;;11.20;94.60;;;;;;4967370;28;20169;-78
2023/03/13 09:31:47;;;;;;;8.80;5.47;;;11.20;94.60;;;;;;4976642;28;20121;-78
2023/03/13 09:34:13;;;;;;;11.85;6.32;;;11.50;94.70;;;;;;4970604;28;20509;-78
2023/03/13 09:36:39;;;;;;;9.82;5.03;;;11.70;94.30;;;;;;4969754;28;20063;-78
2023/03/13 09:39:05;;;;;;;13.30;5.63;;;11.70;94.20;;;;;;4976525;28;20093;-78
2023/03/13 09:42:01;;;;;;;11.32;5.60;;;11.80;94.40;;;;;;4970692;28;20174;-78
2023/03/13 09:44:34;;;;;;;11.43;7.18;;;11.70;94.00;;;;;;4944801;28;20051;-78
2023/03/13 09:47:28;;;;;;;10.70;6.30;;;11.70;94.30;;;;;;4970186;28;20026;-78
2023/03/13 09:50:14;;;;;;;10.50;5.45;;;12.00;94.20;;;;;;4969886;28;20278;-78
2023/03/13 09:52:42;;;;;;;9.45;5.05;;;12.20;94.00;;;;;;4971999;28;20041;-79
2023/03/13 09:55:24;;;;;;;14.57;6.45;;;12.10;93.90;;;;;;4969412;28;20046;-78
2023/03/13 09:57:54;;;;;;;14.20;5.75;;;12.00;93.90;;;;;;4966549;28;20058;-79
2023/03/13 10:01:03;;;;;;;9.88;6.20;;;12.20;94.30;;;;;;4968807;28;20106;-80
2023/03/13 10:03:49;;;;;;;11.32;5.90;;;12.20;93.70;;;;;;4977808;28;20039;-79
2023/03/13 10:06:21;;;;;;;14.25;6.40;;;12.30;94.10;;;;;;4970835;28;20053;-81
2023/03/13 10:08:47;;;;;;;9.32;5.43;;;12.20;94.10;;;;;;4977385;28;20113;-79
2023/03/13 10:11:28;;;;;;;8.95;5.32;;;12.30;94.10;;;;;;4967758;28;20126;-79
2023/03/13 10:14:18;;;;;;;13.55;5.93;;;12.20;93.60;;;;;;4971549;28;20019;-79
2023/03/13 10:16:53;;;;;;;11.60;5.07;;;12.20;94.00;;;;;;4969149;28;20031;-78
2023/03/13 10:19:30;;;;;;;8.50;5.22;;;12.20;94.00;;;;;;4966384;28;20030;-79
2023/03/13 10:21:56;;;;;;;12.73;5.53;;;12.30;94.20;;;;;;4964885;28;20448;-81
2023/03/13 10:24:36;;;;;;;8.95;5.60;;;12.20;93.90;;;;;;4965606;28;20519;-78
2023/03/13 10:27:02;;;;;;;10.07;5.32;;;12.20;93.80;;;;;;4965820;28;20488;-79
2023/03/13 10:29:30;;;;;;;8.25;5.10;;;12.30;93.70;;;;;;4965845;28;20034;-79
2023/03/13 10:32:00;;;;;;;9.27;5.72;;;12.30;93.80;;;;;;4965455;28;20421;-79
2023/03/13 10:34:28;;;;;;;9.15;5.50;;;12.40;94.10;;;;;;4964401;28;20117;-79
2023/03/13 10:36:58;;;;;;;8.75;5.70;;;12.30;93.50;;;;;;4972754;28;20457;-78
2023/03/13 10:39:26;;;;;;;10.50;5.47;;;12.50;93.80;;;;;;4965925;28;20118;-77
2023/03/13 10:42:10;;;;;;;9.43;6.45;;;12.50;93.60;;;;;;4964530;28;20026;-78
2023/03/13 10:44:36;;;;;;;9.63;5.10;;;12.60;93.50;;;;;;4964744;28;20048;-81
2023/03/13 10:47:03;;;;;;;11.60;5.95;;;12.90;92.90;;;;;;4964535;28;20030;-79
2023/03/13 10:49:31;;;;;;;11.68;5.50;;;12.80;93.30;;;;;;4971923;28;20030;-78
2023/03/13 10:52:01;;;;;;;7.97;4.60;;;12.80;93.20;;;;;;4964824;28;20035;-78
2023/03/13 10:54:36;;;;;;;12.10;6.30;;;12.80;93.10;;;;;;4977383;28;20030;-79
2023/03/13 10:57:07;;;;;;;;;;;12.80;93.30;;;;;;4976086;28;20022;-77
2023/03/13 10:59:39;;;;;;;10.55;5.28;;;12.80;93.10;;;;;;4965119;28;20012;-78
2023/03/13 11:02:21;;;;;;;11.23;6.25;;;12.90;93.10;;;;;;4966708;28;20046;-79
2023/03/13 11:04:52;;;;;;;12.38;6.68;;;12.90;93.10;;;;;;4963983;28;20049;-79
2023/03/13 11:07:33;;;;;;;17.42;6.10;;;13.00;93.10;;;;;;4971270;28;20446;-80
2023/03/13 11:10:14;;;;;;;10.70;5.85;;;13.10;92.80;;;;;;4965606;28;20074;-79
2023/03/13 11:12:51;;;;;;;8.05;4.95;;;13.00;92.80;;;;;;4967427;28;20077;-78
2023/03/13 11:15:38;;;;;;;9.30;4.90;;;13.10;92.80;;;;;;4967008;28;20054;-78
2023/03/13 11:18:22;;;;;;;11.73;6.13;;;13.20;93.00;;;;;;4967224;28;20085;-79
2023/03/13 11:20:48;;;;;;;10.25;5.80;;;13.40;93.00;;;;;;4966371;28;20085;-82
2023/03/13 11:23:29;;;;;;;12.48;5.95;;;13.50;92.90;;;;;;4965724;28;20039;-79
2023/03/13 11:26:29;;;;;;;12.02;5.20;;;13.30;92.30;;;;;;4964217;28;20125;-79
2023/03/13 11:29:05;;;;;;;12.00;6.20;;;13.20;92.30;;;;;;4971743;28;20100;-80
2023/03/13 11:31:47;;;;;;;13.43;5.28;;;13.40;93.10;;;;;;4972931;28;20117;-79
2023/03/13 11:34:26;;;;;;;16.70;5.70;;;13.50;92.20;;;;;;4974128;28;20031;-80
2023/03/13 11:37:04;;;;;;;12.73;6.07;;;13.70;92.40;;;;;;4989133;28;20125;-81
2023/03/13 11:39:39;;;;;;;10.65;6.22;;;13.80;92.30;;;;;;4987491;28;20044;-82
2023/03/13 11:42:44;;;;;;;14.35;6.35;;;13.90;92.20;;;;;;4967120;28;20110;-79
2023/03/13 11:45:28;;;;;;;10.60;6.13;;;13.70;92.10;;;;;;4968043;28;20664;-79
2023/03/13 11:48:03;;;;;;;10.45;6.13;;;13.80;92.30;;;;;;4967831;28;20033;-79
2023/03/13 11:50:50;;;;;;;11.98;5.38;;;13.80;91.90;;;;;;4981829;28;20031;-79
2023/03/13 11:53:43;;;;;;;12.05;5.93;;;14.00;92.10;;;;;;4975068;28;20497;-78
2023/03/13 11:56:30;;;;;;;13.48;6.72;;;14.10;91.80;;;;;;4939199;28;20054;-79
2023/03/13 11:59:24;;;;;;;17.98;9.23;;;14.20;92.30;;;;;;4968865;28;20474;-79
2023/03/13 12:02:10;;;;;;;10.63;5.63;;;14.50;92.20;;;;;;4972015;28;20054;-78
2023/03/13 12:04:42;;;;;;;14.10;6.07;;;14.50;92.10;;;;;;4972022;28;20042;-79
2023/03/13 12:07:34;;;;;;;36.53;25.42;;;14.70;92.00;;;;;;4966297;28;20047;-78
2023/03/13 12:10:13;;;;;;;13.05;10.50;;;14.70;91.70;;;;;;4966104;28;20023;-78
2023/03/13 12:12:46;;;;;;;13.25;6.20;;;14.40;91.70;;;;;;4966503;28;20474;-78
2023/03/13 12:15:23;;;;;;;9.27;5.65;;;14.50;91.60;;;;;;4965369;28;20498;-78
2023/03/13 12:17:56;;;;;;;12.95;6.45;;;14.30;91.50;;;;;;4965750;28;20737;-80
2023/03/13 12:20:55;;;;;;;8.25;5.20;;;14.50;91.70;;;;;;4965640;28;20105;-79
2023/03/13 12:23:28;;;;;;;13.70;6.03;;;14.70;91.80;;;;;;4964861;28;20065;-78
2023/03/13 12:26:01;;;;;;;14.40;6.40;;;14.80;91.60;;;;;;4964516;28;20043;-80
2023/03/13 12:28:27;;;;;;;9.48;6.13;;;15.10;91.60;;;;;;4968253;28;20109;-80
2023/03/13 12:31:36;;;;;;;11.15;6.40;;;15.10;91.10;;;;;;4965670;28;20623;-80
2023/03/13 12:34:43;;;;;;;10.52;5.85;;;15.10;91.20;;;;;;4960928;28;20050;-79
2023/03/13 12:37:38;;;;;;;9.82;5.05;;;15.10;91.00;;;;;;4962060;28;20095;-82
2023/03/13 12:40:22;;;;;;;10.77;5.32;;;15.10;91.30;;;;;;4969449;28;20088;-81
2023/03/13 12:43:04;;;;;;;11.85;6.35;;;15.10;91.40;;;;;;4969583;28;20115;-81
2023/03/13 12:45:34;;;;;;;10.60;6.55;;;14.80;91.20;;;;;;4972736;28;20097;-81
2023/03/13 12:48:19;;;;;;;10.07;5.68;;;14.80;91.30;;;;;;4966003;28;20030;-82
2023/03/13 12:51:02;;;;;;;17.00;6.47;;;14.80;91.80;;;;;;4964090;28;20642;-82
2023/03/13 12:54:02;;;;;;;11.68;5.60;;;14.80;91.30;;;;;;4979530;28;20507;-81
2023/03/13 12:56:57;;;;;;;16.35;6.88;;;14.70;91.90;;;;;;4969298;28;20022;-82
2023/03/13 12:59:26;;;;;;;;;;;14.60;91.60;;;;;;4965166;28;20035;-79
2023/03/13 13:01:55;;;;;;;12.52;5.85;;;14.50;91.70;;;;;;4964837;28;19918;-80
2023/03/13 13:04:29;;;;;;;11.85;5.80;;;14.60;91.80;;;;;;4965001;28;20055;-79
2023/03/13 13:06:55;;;;;;;;;;;14.70;91.40;;;;;;4964085;28;20035;-82
2023/03/13 13:09:35;;;;;;;9.63;5.75;;;14.90;91.20;;;;;;4965794;28;20509;-81